sensor_id;sensor_type;location;lat;lon;timestamp;temperature;humidity
10294;DHT22;5192;50.328;7.610;2022-09-11T00:00:00;15.50;99.90
10294;DHT22;5192;50.328;7.610;2022-09-11T00:02:32;15.50;99.90
10294;DHT22;5192;50.328;7.610;2022-09-11T00:05:03;15.50;99.90
10294;DHT22;5192;50.328;7.610;2022-09-11T00:07:32;15.50;99.90
10294;DHT22;5192;50.328;7.610;2022-09-11T00:10:02;15.50;99.90
10294;DHT22;5192;50.328;7.610;2022-09-11T00:12:31;15.50;99.90
10294;DHT22;5192;50.328;7.610;2022-09-11T00:15:01;15.50;99.90
10294;DHT22;5192;50.328;7.610;2022-09-11T00:17:32;15.50;99.90
10294;DHT22;5192;50.328;7.610;2022-09-11T00:20:03;15.50;99.90
10294;DHT22;5192;50.328;7.610;2022-09-11T00:22:52;15.50;99.90
10294;DHT22;5192;50.328;7.610;2022-09-11T00:25:50;15.50;99.90
10294;DHT22;5192;50.328;7.610;2022-09-11T00:28:20;15.50;99.90
10294;DHT22;5192;50.328;7.610;2022-09-11T00:31:24;15.60;99.90
10294;DHT22;5192;50.328;7.610;2022-09-11T00:33:52;15.60;99.90
10294;DHT22;5192;50.328;7.610;2022-09-11T00:36:22;15.60;99.90
10294;DHT22;5192;50.328;7.610;2022-09-11T00:38:50;15.50;99.90
10294;DHT22;5192;50.328;7.610;2022-09-11T00:41:23;15.60;99.90
10294;DHT22;5192;50.328;7.610;2022-09-11T00:47:01;15.60;99.90
10294;DHT22;5192;50.328;7.610;2022-09-11T00:49:49;15.60;99.90
10294;DHT22;5192;50.328;7.610;2022-09-11T00:53:02;15.50;99.90
10294;DHT22;5192;50.328;7.610;2022-09-11T00:56:12;15.60;99.90
10294;DHT22;5192;50.328;7.610;2022-09-11T00:59:02;15.50;99.90
10294;DHT22;5192;50.328;7.610;2022-09-11T01:01:32;15.50;99.90
10294;DHT22;5192;50.328;7.610;2022-09-11T01:04:03;15.40;99.90
10294;DHT22;5192;50.328;7.610;2022-09-11T01:07:09;15.40;99.90
10294;DHT22;5192;50.328;7.610;2022-09-11T01:09:43;15.40;99.90
10294;DHT22;5192;50.328;7.610;2022-09-11T01:18:33;15.30;99.90
10294;DHT22;5192;50.328;7.610;2022-09-11T01:21:48;15.20;99.90
10294;DHT22;5192;50.328;7.610;2022-09-11T01:33:23;15.30;99.90
10294;DHT22;5192;50.328;7.610;2022-09-11T01:36:21;15.30;99.90
10294;DHT22;5192;50.328;7.610;2022-09-11T01:39:05;15.30;99.90
10294;DHT22;5192;50.328;7.610;2022-09-11T01:41:51;15.40;99.90
10294;DHT22;5192;50.328;7.610;2022-09-11T01:44:34;15.40;99.90
10294;DHT22;5192;50.328;7.610;2022-09-11T01:47:04;15.40;99.90
10294;DHT22;5192;50.328;7.610;2022-09-11T01:49:52;15.50;99.90
10294;DHT22;5192;50.328;7.610;2022-09-11T01:52:25;15.50;99.90
10294;DHT22;5192;50.328;7.610;2022-09-11T01:55:00;15.50;99.90
10294;DHT22;5192;50.328;7.610;2022-09-11T02:00:15;15.50;99.90
10294;DHT22;5192;50.328;7.610;2022-09-11T02:02:56;15.50;99.90
10294;DHT22;5192;50.328;7.610;2022-09-11T02:06:11;15.50;99.90
10294;DHT22;5192;50.328;7.610;2022-09-11T02:09:03;15.50;99.90
10294;DHT22;5192;50.328;7.610;2022-09-11T02:11:33;15.50;99.90
10294;DHT22;5192;50.328;7.610;2022-09-11T02:14:28;15.60;99.90
10294;DHT22;5192;50.328;7.610;2022-09-11T02:17:39;15.50;99.90
10294;DHT22;5192;50.328;7.610;2022-09-11T02:20:09;15.50;99.90
10294;DHT22;5192;50.328;7.610;2022-09-11T02:22:58;15.60;99.90
10294;DHT22;5192;50.328;7.610;2022-09-11T02:25:28;15.60;99.90
10294;DHT22;5192;50.328;7.610;2022-09-11T02:27:57;15.50;99.90
10294;DHT22;5192;50.328;7.610;2022-09-11T02:30:31;15.50;99.90
10294;DHT22;5192;50.328;7.610;2022-09-11T02:32:58;15.50;99.90
10294;DHT22;5192;50.328;7.610;2022-09-11T02:35:30;15.50;99.90
10294;DHT22;5192;50.328;7.610;2022-09-11T02:38:20;15.40;99.90
10294;DHT22;5192;50.328;7.610;2022-09-11T02:41:27;15.40;99.90
10294;DHT22;5192;50.328;7.610;2022-09-11T02:44:26;15.30;99.90
10294;DHT22;5192;50.328;7.610;2022-09-11T02:47:34;15.30;99.90
10294;DHT22;5192;50.328;7.610;2022-09-11T02:59:58;15.30;99.90
10294;DHT22;5192;50.328;7.610;2022-09-11T03:02:32;15.30;99.90
10294;DHT22;5192;50.328;7.610;2022-09-11T03:05:13;15.30;99.90
10294;DHT22;5192;50.328;7.610;2022-09-11T03:07:50;15.30;99.90
10294;DHT22;5192;50.328;7.610;2022-09-11T03:10:21;15.30;99.90
10294;DHT22;5192;50.328;7.610;2022-09-11T03:12:52;15.30;99.90
10294;DHT22;5192;50.328;7.610;2022-09-11T03:15:39;15.30;99.90
10294;DHT22;5192;50.328;7.610;2022-09-11T03:18:11;15.30;99.90
10294;DHT22;5192;50.328;7.610;2022-09-11T03:21:01;15.30;99.90
10294;DHT22;5192;50.328;7.610;2022-09-11T03:23:29;15.30;99.90
10294;DHT22;5192;50.328;7.610;2022-09-11T03:26:13;15.30;99.90
10294;DHT22;5192;50.328;7.610;2022-09-11T03:28:42;15.30;99.90
10294;DHT22;5192;50.328;7.610;2022-09-11T03:31:13;15.30;99.90
10294;DHT22;5192;50.328;7.610;2022-09-11T03:33:40;15.30;99.90
10294;DHT22;5192;50.328;7.610;2022-09-11T03:36:30;15.30;99.90
10294;DHT22;5192;50.328;7.610;2022-09-11T03:39:01;15.30;99.90
10294;DHT22;5192;50.328;7.610;2022-09-11T03:41:31;15.30;99.90
10294;DHT22;5192;50.328;7.610;2022-09-11T03:44:01;15.30;99.90
10294;DHT22;5192;50.328;7.610;2022-09-11T03:46:31;15.30;99.90
10294;DHT22;5192;50.328;7.610;2022-09-11T03:49:01;15.30;99.90
10294;DHT22;5192;50.328;7.610;2022-09-11T03:51:32;15.30;99.90
10294;DHT22;5192;50.328;7.610;2022-09-11T03:54:09;15.30;99.90
10294;DHT22;5192;50.328;7.610;2022-09-11T03:56:41;15.30;99.90
10294;DHT22;5192;50.328;7.610;2022-09-11T03:59:10;15.30;99.90
10294;DHT22;5192;50.328;7.610;2022-09-11T04:01:40;15.30;99.90
10294;DHT22;5192;50.328;7.610;2022-09-11T04:04:11;15.30;99.90
10294;DHT22;5192;50.328;7.610;2022-09-11T04:06:41;15.30;99.90
10294;DHT22;5192;50.328;7.610;2022-09-11T04:09:08;15.30;99.90
10294;DHT22;5192;50.328;7.610;2022-09-11T04:11:40;15.40;99.90
10294;DHT22;5192;50.328;7.610;2022-09-11T04:14:09;15.40;99.90
10294;DHT22;5192;50.328;7.610;2022-09-11T04:16:41;15.30;99.90
10294;DHT22;5192;50.328;7.610;2022-09-11T04:19:13;15.30;99.90
10294;DHT22;5192;50.328;7.610;2022-09-11T04:21:43;15.30;99.90
10294;DHT22;5192;50.328;7.610;2022-09-11T04:24:10;15.30;99.90
10294;DHT22;5192;50.328;7.610;2022-09-11T04:26:40;15.40;99.90
10294;DHT22;5192;50.328;7.610;2022-09-11T04:29:29;15.40;99.90
10294;DHT22;5192;50.328;7.610;2022-09-11T04:31:58;15.40;99.90
10294;DHT22;5192;50.328;7.610;2022-09-11T04:34:45;15.40;99.90
10294;DHT22;5192;50.328;7.610;2022-09-11T04:37:20;15.40;99.90
10294;DHT22;5192;50.328;7.610;2022-09-11T04:39:50;15.40;99.90
10294;DHT22;5192;50.328;7.610;2022-09-11T04:42:22;15.40;99.90
10294;DHT22;5192;50.328;7.610;2022-09-11T04:44:50;15.40;99.90
10294;DHT22;5192;50.328;7.610;2022-09-11T04:47:27;15.40;99.90
10294;DHT22;5192;50.328;7.610;2022-09-11T04:50:00;15.40;99.90
10294;DHT22;5192;50.328;7.610;2022-09-11T04:52:30;15.40;99.90
10294;DHT22;5192;50.328;7.610;2022-09-11T04:55:02;15.40;99.90
10294;DHT22;5192;50.328;7.610;2022-09-11T04:57:31;15.50;99.90
10294;DHT22;5192;50.328;7.610;2022-09-11T05:00:08;15.40;99.90
10294;DHT22;5192;50.328;7.610;2022-09-11T05:03:02;15.50;99.90
10294;DHT22;5192;50.328;7.610;2022-09-11T05:05:32;15.40;99.90
10294;DHT22;5192;50.328;7.610;2022-09-11T05:08:01;15.30;99.90
10294;DHT22;5192;50.328;7.610;2022-09-11T05:10:35;15.30;99.90
10294;DHT22;5192;50.328;7.610;2022-09-11T05:13:22;15.40;99.90
10294;DHT22;5192;50.328;7.610;2022-09-11T05:15:49;15.50;99.90
10294;DHT22;5192;50.328;7.610;2022-09-11T05:18:19;15.50;99.90
10294;DHT22;5192;50.328;7.610;2022-09-11T05:20:57;15.40;99.90
10294;DHT22;5192;50.328;7.610;2022-09-11T05:23:29;15.50;99.90
10294;DHT22;5192;50.328;7.610;2022-09-11T05:26:02;15.50;99.90
10294;DHT22;5192;50.328;7.610;2022-09-11T05:28:30;15.50;99.90
10294;DHT22;5192;50.328;7.610;2022-09-11T05:31:08;15.40;99.90
10294;DHT22;5192;50.328;7.610;2022-09-11T05:33:49;15.40;99.90
10294;DHT22;5192;50.328;7.610;2022-09-11T05:36:24;15.50;99.90
10294;DHT22;5192;50.328;7.610;2022-09-11T05:39:01;15.40;99.90
10294;DHT22;5192;50.328;7.610;2022-09-11T05:41:33;15.50;99.90
10294;DHT22;5192;50.328;7.610;2022-09-11T05:44:00;15.50;99.90
10294;DHT22;5192;50.328;7.610;2022-09-11T05:46:29;15.50;99.90
10294;DHT22;5192;50.328;7.610;2022-09-11T05:49:03;15.50;99.90
10294;DHT22;5192;50.328;7.610;2022-09-11T05:51:31;15.50;99.90
10294;DHT22;5192;50.328;7.610;2022-09-11T05:54:09;15.50;99.90
10294;DHT22;5192;50.328;7.610;2022-09-11T05:56:42;15.50;99.90
10294;DHT22;5192;50.328;7.610;2022-09-11T05:59:11;15.60;99.90
10294;DHT22;5192;50.328;7.610;2022-09-11T06:01:52;15.60;99.90
10294;DHT22;5192;50.328;7.610;2022-09-11T06:04:21;15.60;99.90
10294;DHT22;5192;50.328;7.610;2022-09-11T06:06:47;15.60;99.90
10294;DHT22;5192;50.328;7.610;2022-09-11T06:09:19;15.60;99.90
10294;DHT22;5192;50.328;7.610;2022-09-11T06:11:51;15.70;99.90
10294;DHT22;5192;50.328;7.610;2022-09-11T06:14:21;15.70;99.90
10294;DHT22;5192;50.328;7.610;2022-09-11T06:16:50;15.80;99.90
10294;DHT22;5192;50.328;7.610;2022-09-11T06:19:21;15.80;99.90
10294;DHT22;5192;50.328;7.610;2022-09-11T06:21:51;15.80;99.90
10294;DHT22;5192;50.328;7.610;2022-09-11T06:24:21;15.80;99.90
10294;DHT22;5192;50.328;7.610;2022-09-11T06:26:50;15.80;99.90
10294;DHT22;5192;50.328;7.610;2022-09-11T06:29:20;15.90;99.90
10294;DHT22;5192;50.328;7.610;2022-09-11T06:31:47;15.90;99.90
10294;DHT22;5192;50.328;7.610;2022-09-11T06:34:17;15.90;99.90
10294;DHT22;5192;50.328;7.610;2022-09-11T06:36:46;15.90;99.90
10294;DHT22;5192;50.328;7.610;2022-09-11T06:39:31;15.90;99.90
10294;DHT22;5192;50.328;7.610;2022-09-11T06:42:01;15.90;99.90
10294;DHT22;5192;50.328;7.610;2022-09-11T06:44:29;15.90;99.90
10294;DHT22;5192;50.328;7.610;2022-09-11T06:47:00;15.80;99.90
10294;DHT22;5192;50.328;7.610;2022-09-11T06:49:30;15.90;99.90
10294;DHT22;5192;50.328;7.610;2022-09-11T06:52:02;16.00;99.90
10294;DHT22;5192;50.328;7.610;2022-09-11T06:54:32;16.10;99.90
10294;DHT22;5192;50.328;7.610;2022-09-11T06:57:09;16.10;99.90
10294;DHT22;5192;50.328;7.610;2022-09-11T06:59:36;16.10;99.90
10294;DHT22;5192;50.328;7.610;2022-09-11T07:02:04;16.00;99.90
10294;DHT22;5192;50.328;7.610;2022-09-11T07:04:32;16.00;99.90
10294;DHT22;5192;50.328;7.610;2022-09-11T07:07:02;16.10;99.90
10294;DHT22;5192;50.328;7.610;2022-09-11T07:09:42;16.20;99.90
10294;DHT22;5192;50.328;7.610;2022-09-11T07:12:10;16.20;99.90
10294;DHT22;5192;50.328;7.610;2022-09-11T07:14:41;16.20;99.90
10294;DHT22;5192;50.328;7.610;2022-09-11T07:17:12;16.20;99.90
10294;DHT22;5192;50.328;7.610;2022-09-11T07:19:42;16.20;99.90
10294;DHT22;5192;50.328;7.610;2022-09-11T07:22:13;16.30;99.90
10294;DHT22;5192;50.328;7.610;2022-09-11T07:24:59;16.30;99.90
10294;DHT22;5192;50.328;7.610;2022-09-11T07:27:31;16.40;99.90
10294;DHT22;5192;50.328;7.610;2022-09-11T07:30:01;16.60;99.90
10294;DHT22;5192;50.328;7.610;2022-09-11T07:32:29;16.70;99.90
10294;DHT22;5192;50.328;7.610;2022-09-11T07:35:03;16.70;99.90
10294;DHT22;5192;50.328;7.610;2022-09-11T07:37:30;16.70;99.90
10294;DHT22;5192;50.328;7.610;2022-09-11T07:39:57;16.80;99.90
10294;DHT22;5192;50.328;7.610;2022-09-11T07:42:29;16.90;99.90
10294;DHT22;5192;50.328;7.610;2022-09-11T07:44:59;16.90;99.90
10294;DHT22;5192;50.328;7.610;2022-09-11T07:47:26;17.10;99.90
10294;DHT22;5192;50.328;7.610;2022-09-11T07:49:54;17.00;99.90
10294;DHT22;5192;50.328;7.610;2022-09-11T07:52:23;17.00;99.90
10294;DHT22;5192;50.328;7.610;2022-09-11T07:54:50;17.10;99.90
10294;DHT22;5192;50.328;7.610;2022-09-11T07:57:19;17.10;99.90
10294;DHT22;5192;50.328;7.610;2022-09-11T07:59:47;17.00;99.90
10294;DHT22;5192;50.328;7.610;2022-09-11T08:02:15;17.00;99.90
10294;DHT22;5192;50.328;7.610;2022-09-11T08:04:43;17.10;99.90
10294;DHT22;5192;50.328;7.610;2022-09-11T08:07:10;17.10;99.90
10294;DHT22;5192;50.328;7.610;2022-09-11T08:09:41;17.20;99.90
10294;DHT22;5192;50.328;7.610;2022-09-11T08:12:11;17.30;99.90
10294;DHT22;5192;50.328;7.610;2022-09-11T08:14:49;17.40;99.90
10294;DHT22;5192;50.328;7.610;2022-09-11T08:17:22;17.60;99.90
10294;DHT22;5192;50.328;7.610;2022-09-11T08:19:50;17.80;99.90
10294;DHT22;5192;50.328;7.610;2022-09-11T08:22:20;17.70;99.90
10294;DHT22;5192;50.328;7.610;2022-09-11T08:24:52;17.70;99.90
10294;DHT22;5192;50.328;7.610;2022-09-11T08:27:35;17.80;99.90
10294;DHT22;5192;50.328;7.610;2022-09-11T08:30:20;17.60;99.90
10294;DHT22;5192;50.328;7.610;2022-09-11T08:32:52;17.70;99.90
10294;DHT22;5192;50.328;7.610;2022-09-11T08:35:19;17.70;99.90
10294;DHT22;5192;50.328;7.610;2022-09-11T08:37:52;17.70;99.90
10294;DHT22;5192;50.328;7.610;2022-09-11T08:40:22;17.70;99.90
10294;DHT22;5192;50.328;7.610;2022-09-11T08:42:52;17.70;99.90
10294;DHT22;5192;50.328;7.610;2022-09-11T08:45:33;17.80;99.90
10294;DHT22;5192;50.328;7.610;2022-09-11T08:48:26;17.90;99.90
10294;DHT22;5192;50.328;7.610;2022-09-11T08:51:03;18.10;99.90
10294;DHT22;5192;50.328;7.610;2022-09-11T08:53:33;18.20;99.90
10294;DHT22;5192;50.328;7.610;2022-09-11T08:56:21;18.30;99.90
10294;DHT22;5192;50.328;7.610;2022-09-11T08:59:16;18.40;99.90
10294;DHT22;5192;50.328;7.610;2022-09-11T09:05:26;18.40;99.90
10294;DHT22;5192;50.328;7.610;2022-09-11T09:11:41;18.60;99.90
10294;DHT22;5192;50.328;7.610;2022-09-11T09:20:49;18.50;99.90
10294;DHT22;5192;50.328;7.610;2022-09-11T09:23:18;18.40;99.90
10294;DHT22;5192;50.328;7.610;2022-09-11T09:25:49;18.40;99.90
10294;DHT22;5192;50.328;7.610;2022-09-11T09:28:44;18.50;99.90
10294;DHT22;5192;50.328;7.610;2022-09-11T09:31:14;18.40;99.90
10294;DHT22;5192;50.328;7.610;2022-09-11T09:34:12;18.30;99.90
10294;DHT22;5192;50.328;7.610;2022-09-11T09:37:15;18.40;99.90
10294;DHT22;5192;50.328;7.610;2022-09-11T09:39:52;18.40;99.90
10294;DHT22;5192;50.328;7.610;2022-09-11T09:42:43;18.40;99.90
10294;DHT22;5192;50.328;7.610;2022-09-11T09:45:54;18.40;99.90
10294;DHT22;5192;50.328;7.610;2022-09-11T09:48:40;18.60;99.90
10294;DHT22;5192;50.328;7.610;2022-09-11T09:51:12;18.60;99.90
10294;DHT22;5192;50.328;7.610;2022-09-11T09:54:06;18.70;99.90
10294;DHT22;5192;50.328;7.610;2022-09-11T09:57:31;18.70;99.90
10294;DHT22;5192;50.328;7.610;2022-09-11T10:00:18;18.80;99.90
10294;DHT22;5192;50.328;7.610;2022-09-11T10:02:52;18.90;99.90
10294;DHT22;5192;50.328;7.610;2022-09-11T10:05:30;18.90;99.90
10294;DHT22;5192;50.328;7.610;2022-09-11T10:11:01;19.00;99.90
10294;DHT22;5192;50.328;7.610;2022-09-11T10:13:42;18.90;99.90
10294;DHT22;5192;50.328;7.610;2022-09-11T10:16:31;18.90;99.90
10294;DHT22;5192;50.328;7.610;2022-09-11T10:19:00;18.80;99.90
10294;DHT22;5192;50.328;7.610;2022-09-11T10:21:31;18.80;99.90
10294;DHT22;5192;50.328;7.610;2022-09-11T10:24:22;18.70;99.90
10294;DHT22;5192;50.328;7.610;2022-09-11T10:26:50;18.90;99.90
10294;DHT22;5192;50.328;7.610;2022-09-11T10:31:56;19.30;99.90
10294;DHT22;5192;50.328;7.610;2022-09-11T10:34:52;19.60;99.90
10294;DHT22;5192;50.328;7.610;2022-09-11T10:37:41;19.90;99.90
10294;DHT22;5192;50.328;7.610;2022-09-11T10:40:31;20.20;99.90
10294;DHT22;5192;50.328;7.610;2022-09-11T10:42:59;20.30;99.90
10294;DHT22;5192;50.328;7.610;2022-09-11T10:45:31;20.40;99.90
10294;DHT22;5192;50.328;7.610;2022-09-11T10:48:22;20.40;99.90
10294;DHT22;5192;50.328;7.610;2022-09-11T10:51:06;20.40;99.90
10294;DHT22;5192;50.328;7.610;2022-09-11T11:02:39;20.50;99.90
10294;DHT22;5192;50.328;7.610;2022-09-11T11:34:51;20.90;99.90
10294;DHT22;5192;50.328;7.610;2022-09-11T11:37:52;20.70;99.90
10294;DHT22;5192;50.328;7.610;2022-09-11T11:40:43;20.70;99.90
10294;DHT22;5192;50.328;7.610;2022-09-11T11:43:20;20.90;99.90
10294;DHT22;5192;50.328;7.610;2022-09-11T11:52:42;21.20;99.90
10294;DHT22;5192;50.328;7.610;2022-09-11T12:04:58;21.30;99.90
10294;DHT22;5192;50.328;7.610;2022-09-11T12:07:51;21.60;25.90
10294;DHT22;5192;50.328;7.610;2022-09-11T12:13:24;22.00;88.00
10294;DHT22;5192;50.328;7.610;2022-09-11T12:24:22;22.90;35.30
10294;DHT22;5192;50.328;7.610;2022-09-11T12:30:53;23.30;40.00
10294;DHT22;5192;50.328;7.610;2022-09-11T12:36:28;23.40;19.90
10294;DHT22;5192;50.328;7.610;2022-09-11T12:39:34;23.00;14.30
10294;DHT22;5192;50.328;7.610;2022-09-11T12:45:56;22.50;15.90
10294;DHT22;5192;50.328;7.610;2022-09-11T12:49:19;22.50;19.10
10294;DHT22;5192;50.328;7.610;2022-09-11T12:52:00;22.40;5.70
10294;DHT22;5192;50.328;7.610;2022-09-11T12:54:48;22.30;18.20
10294;DHT22;5192;50.328;7.610;2022-09-11T12:57:31;22.30;1.80
10294;DHT22;5192;50.328;7.610;2022-09-11T13:03:24;22.80;1.00
10294;DHT22;5192;50.328;7.610;2022-09-11T13:06:12;23.00;1.00
10294;DHT22;5192;50.328;7.610;2022-09-11T13:08:58;23.30;1.00
10294;DHT22;5192;50.328;7.610;2022-09-11T13:11:47;23.50;1.00
10294;DHT22;5192;50.328;7.610;2022-09-11T13:17:15;23.80;1.00
10294;DHT22;5192;50.328;7.610;2022-09-11T13:19:51;23.80;1.00
10294;DHT22;5192;50.328;7.610;2022-09-11T13:22:36;23.80;1.00
10294;DHT22;5192;50.328;7.610;2022-09-11T13:25:23;23.70;1.00
10294;DHT22;5192;50.328;7.610;2022-09-11T13:28:23;23.70;1.00
10294;DHT22;5192;50.328;7.610;2022-09-11T13:31:00;24.70;1.00
10294;DHT22;5192;50.328;7.610;2022-09-11T13:33:30;25.00;1.00
10294;DHT22;5192;50.328;7.610;2022-09-11T13:36:00;26.00;1.00
10294;DHT22;5192;50.328;7.610;2022-09-11T13:38:38;25.90;1.00
10294;DHT22;5192;50.328;7.610;2022-09-11T13:41:15;27.00;1.00
10294;DHT22;5192;50.328;7.610;2022-09-11T13:44:11;27.30;1.00
10294;DHT22;5192;50.328;7.610;2022-09-11T13:46:59;29.00;1.00
10294;DHT22;5192;50.328;7.610;2022-09-11T13:49:46;29.80;1.00
10294;DHT22;5192;50.328;7.610;2022-09-11T13:52:23;29.80;1.00
10294;DHT22;5192;50.328;7.610;2022-09-11T13:58:02;30.10;1.00
10294;DHT22;5192;50.328;7.610;2022-09-11T14:00:51;30.80;1.00
10294;DHT22;5192;50.328;7.610;2022-09-11T14:03:25;30.30;1.00
10294;DHT22;5192;50.328;7.610;2022-09-11T14:06:18;30.10;1.00
10294;DHT22;5192;50.328;7.610;2022-09-11T14:09:04;29.50;1.00
10294;DHT22;5192;50.328;7.610;2022-09-11T14:11:50;28.90;1.00
10294;DHT22;5192;50.328;7.610;2022-09-11T14:14:33;28.10;1.00
10294;DHT22;5192;50.328;7.610;2022-09-11T14:17:01;27.60;1.00
10294;DHT22;5192;50.328;7.610;2022-09-11T14:19:31;27.10;1.00
10294;DHT22;5192;50.328;7.610;2022-09-11T14:22:25;26.90;1.00
10294;DHT22;5192;50.328;7.610;2022-09-11T14:27:47;25.80;1.00
10294;DHT22;5192;50.328;7.610;2022-09-11T14:30:34;25.60;1.00
10294;DHT22;5192;50.328;7.610;2022-09-11T14:36:20;25.60;1.00
10294;DHT22;5192;50.328;7.610;2022-09-11T14:38:51;25.60;1.00
10294;DHT22;5192;50.328;7.610;2022-09-11T14:41:22;25.50;1.00
10294;DHT22;5192;50.328;7.610;2022-09-11T14:43:52;25.40;1.00
10294;DHT22;5192;50.328;7.610;2022-09-11T14:46:20;25.50;1.00
10294;DHT22;5192;50.328;7.610;2022-09-11T14:48:46;25.60;1.00
10294;DHT22;5192;50.328;7.610;2022-09-11T14:51:13;25.50;1.00
10294;DHT22;5192;50.328;7.610;2022-09-11T14:53:40;25.20;1.00
10294;DHT22;5192;50.328;7.610;2022-09-11T14:56:12;25.30;1.00
10294;DHT22;5192;50.328;7.610;2022-09-11T14:58:41;25.20;1.00
10294;DHT22;5192;50.328;7.610;2022-09-11T15:01:11;24.90;1.00
10294;DHT22;5192;50.328;7.610;2022-09-11T15:03:43;24.80;1.00
10294;DHT22;5192;50.328;7.610;2022-09-11T15:06:32;24.60;1.00
10294;DHT22;5192;50.328;7.610;2022-09-11T15:09:03;24.50;1.00
10294;DHT22;5192;50.328;7.610;2022-09-11T15:11:33;24.30;1.00
10294;DHT22;5192;50.328;7.610;2022-09-11T15:14:02;24.20;1.00
10294;DHT22;5192;50.328;7.610;2022-09-11T15:16:43;24.20;1.00
10294;DHT22;5192;50.328;7.610;2022-09-11T15:19:09;24.20;1.00
10294;DHT22;5192;50.328;7.610;2022-09-11T15:21:39;24.20;1.00
10294;DHT22;5192;50.328;7.610;2022-09-11T15:24:13;24.00;1.00
10294;DHT22;5192;50.328;7.610;2022-09-11T15:26:42;24.20;1.00
10294;DHT22;5192;50.328;7.610;2022-09-11T15:29:09;24.20;1.00
10294;DHT22;5192;50.328;7.610;2022-09-11T15:31:39;23.90;1.00
10294;DHT22;5192;50.328;7.610;2022-09-11T15:34:09;23.90;1.00
10294;DHT22;5192;50.328;7.610;2022-09-11T15:36:41;24.00;1.00
10294;DHT22;5192;50.328;7.610;2022-09-11T15:39:13;24.00;1.00
10294;DHT22;5192;50.328;7.610;2022-09-11T15:41:42;23.90;1.00
10294;DHT22;5192;50.328;7.610;2022-09-11T15:44:10;23.80;1.00
10294;DHT22;5192;50.328;7.610;2022-09-11T15:46:37;23.80;1.00
10294;DHT22;5192;50.328;7.610;2022-09-11T15:49:03;23.80;1.00
10294;DHT22;5192;50.328;7.610;2022-09-11T15:51:35;23.70;1.00
10294;DHT22;5192;50.328;7.610;2022-09-11T15:54:01;23.80;1.00
10294;DHT22;5192;50.328;7.610;2022-09-11T15:56:29;23.80;1.00
10294;DHT22;5192;50.328;7.610;2022-09-11T15:59:18;23.60;1.00
10294;DHT22;5192;50.328;7.610;2022-09-11T16:01:46;23.60;1.00
10294;DHT22;5192;50.328;7.610;2022-09-11T16:04:42;23.70;1.00
10294;DHT22;5192;50.328;7.610;2022-09-11T16:07:10;23.70;1.00
10294;DHT22;5192;50.328;7.610;2022-09-11T16:09:40;23.80;1.00
10294;DHT22;5192;50.328;7.610;2022-09-11T16:12:09;23.80;1.00
10294;DHT22;5192;50.328;7.610;2022-09-11T16:14:42;23.80;1.00
10294;DHT22;5192;50.328;7.610;2022-09-11T16:17:10;23.60;1.00
10294;DHT22;5192;50.328;7.610;2022-09-11T16:19:36;23.80;1.00
10294;DHT22;5192;50.328;7.610;2022-09-11T16:22:05;23.90;1.00
10294;DHT22;5192;50.328;7.610;2022-09-11T16:24:32;23.90;1.00
10294;DHT22;5192;50.328;7.610;2022-09-11T16:27:24;24.00;1.00
10294;DHT22;5192;50.328;7.610;2022-09-11T16:29:51;24.00;1.00
10294;DHT22;5192;50.328;7.610;2022-09-11T16:32:23;24.10;1.00
10294;DHT22;5192;50.328;7.610;2022-09-11T16:35:10;24.20;1.00
10294;DHT22;5192;50.328;7.610;2022-09-11T16:37:42;24.40;1.00
10294;DHT22;5192;50.328;7.610;2022-09-11T16:40:09;24.60;1.00
10294;DHT22;5192;50.328;7.610;2022-09-11T16:42:37;24.60;1.00
10294;DHT22;5192;50.328;7.610;2022-09-11T16:45:04;24.40;1.00
10294;DHT22;5192;50.328;7.610;2022-09-11T16:47:31;24.00;1.00
10294;DHT22;5192;50.328;7.610;2022-09-11T16:50:03;23.90;1.00
10294;DHT22;5192;50.328;7.610;2022-09-11T16:52:33;23.70;1.00
10294;DHT22;5192;50.328;7.610;2022-09-11T16:55:01;23.40;1.00
10294;DHT22;5192;50.328;7.610;2022-09-11T16:57:28;23.20;1.00
10294;DHT22;5192;50.328;7.610;2022-09-11T17:00:00;23.10;1.00
10294;DHT22;5192;50.328;7.610;2022-09-11T17:02:31;23.00;1.00
10294;DHT22;5192;50.328;7.610;2022-09-11T17:05:11;23.00;1.00
10294;DHT22;5192;50.328;7.610;2022-09-11T17:07:40;22.80;1.00
10294;DHT22;5192;50.328;7.610;2022-09-11T17:10:20;22.60;1.00
10294;DHT22;5192;50.328;7.610;2022-09-11T17:12:52;22.30;1.00
10294;DHT22;5192;50.328;7.610;2022-09-11T17:15:23;22.20;1.00
10294;DHT22;5192;50.328;7.610;2022-09-11T17:17:51;22.10;1.00
10294;DHT22;5192;50.328;7.610;2022-09-11T17:20:22;21.90;1.00
10294;DHT22;5192;50.328;7.610;2022-09-11T17:22:54;21.80;1.00
10294;DHT22;5192;50.328;7.610;2022-09-11T17:25:22;21.70;1.00
10294;DHT22;5192;50.328;7.610;2022-09-11T17:27:51;21.50;1.00
10294;DHT22;5192;50.328;7.610;2022-09-11T17:30:24;21.40;1.00
10294;DHT22;5192;50.328;7.610;2022-09-11T17:32:51;21.20;1.00
10294;DHT22;5192;50.328;7.610;2022-09-11T17:35:22;21.10;1.00
10294;DHT22;5192;50.328;7.610;2022-09-11T17:37:52;20.90;1.00
10294;DHT22;5192;50.328;7.610;2022-09-11T17:40:23;20.80;4.70
10294;DHT22;5192;50.328;7.610;2022-09-11T17:42:51;20.70;60.80
10294;DHT22;5192;50.328;7.610;2022-09-11T17:45:23;20.50;99.90
10294;DHT22;5192;50.328;7.610;2022-09-11T17:47:56;20.30;99.90
10294;DHT22;5192;50.328;7.610;2022-09-11T17:50:23;20.10;99.90
10294;DHT22;5192;50.328;7.610;2022-09-11T17:52:54;19.80;99.90
10294;DHT22;5192;50.328;7.610;2022-09-11T17:55:21;19.70;99.90
10294;DHT22;5192;50.328;7.610;2022-09-11T17:57:53;19.40;99.90
10294;DHT22;5192;50.328;7.610;2022-09-11T18:00:22;19.20;99.90
10294;DHT22;5192;50.328;7.610;2022-09-11T18:02:48;19.00;99.90
10294;DHT22;5192;50.328;7.610;2022-09-11T18:05:16;18.90;99.90
10294;DHT22;5192;50.328;7.610;2022-09-11T18:07:45;18.60;99.90
10294;DHT22;5192;50.328;7.610;2022-09-11T18:10:19;18.50;99.90
10294;DHT22;5192;50.328;7.610;2022-09-11T18:12:50;18.30;99.90
10294;DHT22;5192;50.328;7.610;2022-09-11T18:15:23;18.10;99.90
10294;DHT22;5192;50.328;7.610;2022-09-11T18:17:52;18.00;99.90
10294;DHT22;5192;50.328;7.610;2022-09-11T18:20:23;17.80;99.90
10294;DHT22;5192;50.328;7.610;2022-09-11T18:23:00;17.70;99.90
10294;DHT22;5192;50.328;7.610;2022-09-11T18:25:42;17.60;99.90
10294;DHT22;5192;50.328;7.610;2022-09-11T18:28:13;17.50;99.90
10294;DHT22;5192;50.328;7.610;2022-09-11T18:30:43;17.30;99.90
10294;DHT22;5192;50.328;7.610;2022-09-11T18:33:11;17.20;99.90
10294;DHT22;5192;50.328;7.610;2022-09-11T18:35:40;17.10;99.90
10294;DHT22;5192;50.328;7.610;2022-09-11T18:38:10;17.00;99.90
10294;DHT22;5192;50.328;7.610;2022-09-11T18:40:38;16.90;99.90
10294;DHT22;5192;50.328;7.610;2022-09-11T18:43:10;16.80;99.90
10294;DHT22;5192;50.328;7.610;2022-09-11T18:45:42;16.80;99.90
10294;DHT22;5192;50.328;7.610;2022-09-11T18:48:10;16.70;99.90
10294;DHT22;5192;50.328;7.610;2022-09-11T18:50:43;16.70;99.90
10294;DHT22;5192;50.328;7.610;2022-09-11T18:53:13;16.60;99.90
10294;DHT22;5192;50.328;7.610;2022-09-11T18:55:41;16.60;99.90
10294;DHT22;5192;50.328;7.610;2022-09-11T18:58:11;16.50;99.90
10294;DHT22;5192;50.328;7.610;2022-09-11T19:00:44;16.50;99.90
10294;DHT22;5192;50.328;7.610;2022-09-11T19:03:10;16.40;99.90
10294;DHT22;5192;50.328;7.610;2022-09-11T19:05:42;16.30;99.90